sensor_id;sensor_type;location;lat;lon;timestamp;P1;durP1;ratioP1;P2;durP2;ratioP2
8683;SDS011;4379;59.744;18.206;2023-07-20T00:01:18;0.90;;;0.90;;
8683;SDS011;4379;59.744;18.206;2023-07-20T00:03:46;1.23;;;1.13;;
8683;SDS011;4379;59.744;18.206;2023-07-20T00:06:22;2.63;;;0.88;;
8683;SDS011;4379;59.744;18.206;2023-07-20T00:08:52;1.20;;;0.93;;
8683;SDS011;4379;59.744;18.206;2023-07-20T00:11:21;2.60;;;1.10;;
8683;SDS011;4379;59.744;18.206;2023-07-20T00:13:52;1.23;;;1.20;;
8683;SDS011;4379;59.744;18.206;2023-07-20T00:16:21;1.40;;;1.15;;
8683;SDS011;4379;59.744;18.206;2023-07-20T00:18:49;1.67;;;1.20;;
8683;SDS011;4379;59.744;18.206;2023-07-20T00:21:18;1.10;;;1.00;;
8683;SDS011;4379;59.744;18.206;2023-07-20T00:23:46;1.23;;;1.13;;
8683;SDS011;4379;59.744;18.206;2023-07-20T00:26:14;3.80;;;1.15;;
8683;SDS011;4379;59.744;18.206;2023-07-20T00:28:42;1.92;;;0.88;;
8683;SDS011;4379;59.744;18.206;2023-07-20T00:31:11;1.13;;;1.02;;
8683;SDS011;4379;59.744;18.206;2023-07-20T00:33:39;1.65;;;1.17;;
8683;SDS011;4379;59.744;18.206;2023-07-20T00:36:08;1.00;;;1.00;;
8683;SDS011;4379;59.744;18.206;2023-07-20T00:38:36;2.42;;;1.10;;
8683;SDS011;4379;59.744;18.206;2023-07-20T00:41:04;1.65;;;1.13;;
8683;SDS011;4379;59.744;18.206;2023-07-20T00:43:32;1.08;;;1.00;;
8683;SDS011;4379;59.744;18.206;2023-07-20T00:46:00;1.13;;;0.90;;
8683;SDS011;4379;59.744;18.206;2023-07-20T00:48:30;1.23;;;1.02;;
8683;SDS011;4379;59.744;18.206;2023-07-20T00:50:59;0.88;;;0.88;;
8683;SDS011;4379;59.744;18.206;2023-07-20T00:53:29;3.30;;;1.30;;
8683;SDS011;4379;59.744;18.206;2023-07-20T00:55:58;1.13;;;1.00;;
8683;SDS011;4379;59.744;18.206;2023-07-20T00:58:26;1.17;;;1.10;;
8683;SDS011;4379;59.744;18.206;2023-07-20T01:00:55;1.02;;;1.00;;
8683;SDS011;4379;59.744;18.206;2023-07-20T01:03:26;1.20;;;1.10;;
8683;SDS011;4379;59.744;18.206;2023-07-20T01:05:57;2.10;;;1.10;;
8683;SDS011;4379;59.744;18.206;2023-07-20T01:08:49;4.18;;;1.25;;
8683;SDS011;4379;59.744;18.206;2023-07-20T01:11:37;2.55;;;1.35;;
8683;SDS011;4379;59.744;18.206;2023-07-20T01:14:20;1.30;;;1.20;;
8683;SDS011;4379;59.744;18.206;2023-07-20T01:16:50;0.90;;;0.90;;
8683;SDS011;4379;59.744;18.206;2023-07-20T01:19:22;1.45;;;1.08;;
8683;SDS011;4379;59.744;18.206;2023-07-20T01:22:09;1.15;;;1.02;;
8683;SDS011;4379;59.744;18.206;2023-07-20T01:24:47;1.73;;;1.05;;
8683;SDS011;4379;59.744;18.206;2023-07-20T01:30:16;2.08;;;1.25;;
8683;SDS011;4379;59.744;18.206;2023-07-20T01:33:07;2.38;;;1.20;;
8683;SDS011;4379;59.744;18.206;2023-07-20T01:35:36;1.35;;;1.00;;
8683;SDS011;4379;59.744;18.206;2023-07-20T01:38:09;1.23;;;0.98;;
8683;SDS011;4379;59.744;18.206;2023-07-20T01:40:40;1.27;;;1.17;;
8683;SDS011;4379;59.744;18.206;2023-07-20T01:43:09;1.33;;;1.23;;
8683;SDS011;4379;59.744;18.206;2023-07-20T01:45:37;1.60;;;1.25;;
8683;SDS011;4379;59.744;18.206;2023-07-20T01:48:07;2.08;;;1.15;;
8683;SDS011;4379;59.744;18.206;2023-07-20T01:50:35;1.20;;;1.10;;
8683;SDS011;4379;59.744;18.206;2023-07-20T01:53:04;1.10;;;1.02;;
8683;SDS011;4379;59.744;18.206;2023-07-20T01:55:32;1.83;;;1.10;;
8683;SDS011;4379;59.744;18.206;2023-07-20T01:58:01;1.35;;;1.25;;
8683;SDS011;4379;59.744;18.206;2023-07-20T02:00:30;2.55;;;1.40;;
8683;SDS011;4379;59.744;18.206;2023-07-20T02:02:59;1.25;;;1.15;;
8683;SDS011;4379;59.744;18.206;2023-07-20T02:05:27;2.20;;;1.10;;
8683;SDS011;4379;59.744;18.206;2023-07-20T02:07:56;1.88;;;1.15;;
8683;SDS011;4379;59.744;18.206;2023-07-20T02:10:24;2.40;;;1.35;;
8683;SDS011;4379;59.744;18.206;2023-07-20T02:12:53;2.63;;;1.08;;
8683;SDS011;4379;59.744;18.206;2023-07-20T02:15:22;2.03;;;1.23;;
8683;SDS011;4379;59.744;18.206;2023-07-20T02:17:50;1.17;;;1.10;;
8683;SDS011;4379;59.744;18.206;2023-07-20T02:20:19;2.58;;;1.30;;
8683;SDS011;4379;59.744;18.206;2023-07-20T02:22:48;1.45;;;1.30;;
8683;SDS011;4379;59.744;18.206;2023-07-20T02:25:17;1.30;;;1.20;;
8683;SDS011;4379;59.744;18.206;2023-07-20T02:27:45;3.63;;;1.40;;
8683;SDS011;4379;59.744;18.206;2023-07-20T02:30:14;1.23;;;1.23;;
8683;SDS011;4379;59.744;18.206;2023-07-20T02:32:43;2.20;;;1.45;;
8683;SDS011;4379;59.744;18.206;2023-07-20T02:35:16;1.47;;;1.33;;
8683;SDS011;4379;59.744;18.206;2023-07-20T02:37:45;1.30;;;1.20;;
8683;SDS011;4379;59.744;18.206;2023-07-20T02:40:14;2.22;;;1.20;;
8683;SDS011;4379;59.744;18.206;2023-07-20T02:42:42;1.48;;;1.38;;
8683;SDS011;4379;59.744;18.206;2023-07-20T02:45:11;2.42;;;1.23;;
8683;SDS011;4379;59.744;18.206;2023-07-20T02:47:39;1.75;;;1.55;;
8683;SDS011;4379;59.744;18.206;2023-07-20T02:50:07;2.97;;;1.35;;
8683;SDS011;4379;59.744;18.206;2023-07-20T02:52:36;2.10;;;1.70;;
8683;SDS011;4379;59.744;18.206;2023-07-20T02:55:05;2.15;;;1.30;;
8683;SDS011;4379;59.744;18.206;2023-07-20T02:57:33;2.70;;;1.52;;
8683;SDS011;4379;59.744;18.206;2023-07-20T03:00:02;1.33;;;1.23;;
8683;SDS011;4379;59.744;18.206;2023-07-20T03:02:33;1.58;;;1.48;;
8683;SDS011;4379;59.744;18.206;2023-07-20T03:05:01;1.40;;;1.30;;
8683;SDS011;4379;59.744;18.206;2023-07-20T03:07:33;1.75;;;1.13;;
8683;SDS011;4379;59.744;18.206;2023-07-20T03:10:01;2.40;;;1.40;;
8683;SDS011;4379;59.744;18.206;2023-07-20T03:12:31;1.52;;;1.42;;
8683;SDS011;4379;59.744;18.206;2023-07-20T03:15:06;2.38;;;1.27;;
8683;SDS011;4379;59.744;18.206;2023-07-20T03:17:39;1.67;;;1.25;;
8683;SDS011;4379;59.744;18.206;2023-07-20T03:20:10;1.80;;;1.20;;
8683;SDS011;4379;59.744;18.206;2023-07-20T03:22:40;2.53;;;1.30;;
8683;SDS011;4379;59.744;18.206;2023-07-20T03:25:09;1.80;;;1.30;;
8683;SDS011;4379;59.744;18.206;2023-07-20T03:27:42;1.90;;;1.10;;
8683;SDS011;4379;59.744;18.206;2023-07-20T03:30:12;1.60;;;1.20;;
8683;SDS011;4379;59.744;18.206;2023-07-20T03:32:45;2.92;;;1.30;;
8683;SDS011;4379;59.744;18.206;2023-07-20T03:35:14;1.50;;;1.30;;
8683;SDS011;4379;59.744;18.206;2023-07-20T03:37:48;1.40;;;1.30;;
8683;SDS011;4379;59.744;18.206;2023-07-20T03:40:18;1.60;;;1.20;;
8683;SDS011;4379;59.744;18.206;2023-07-20T03:42:52;5.70;;;1.70;;
8683;SDS011;4379;59.744;18.206;2023-07-20T03:45:21;1.80;;;1.20;;
8683;SDS011;4379;59.744;18.206;2023-07-20T03:47:51;3.00;;;1.33;;
8683;SDS011;4379;59.744;18.206;2023-07-20T03:50:22;1.60;;;1.33;;
8683;SDS011;4379;59.744;18.206;2023-07-20T03:52:51;1.65;;;1.55;;
8683;SDS011;4379;59.744;18.206;2023-07-20T03:55:23;1.65;;;1.52;;
8683;SDS011;4379;59.744;18.206;2023-07-20T03:57:53;2.10;;;1.48;;
8683;SDS011;4379;59.744;18.206;2023-07-20T04:00:31;2.40;;;1.55;;
8683;SDS011;4379;59.744;18.206;2023-07-20T04:03:06;1.60;;;1.38;;
8683;SDS011;4379;59.744;18.206;2023-07-20T04:05:39;1.70;;;1.60;;
8683;SDS011;4379;59.744;18.206;2023-07-20T04:08:08;2.05;;;1.85;;
8683;SDS011;4379;59.744;18.206;2023-07-20T04:10:45;2.58;;;1.50;;
8683;SDS011;4379;59.744;18.206;2023-07-20T04:13:15;3.17;;;1.52;;
8683;SDS011;4379;59.744;18.206;2023-07-20T04:15:44;3.28;;;1.70;;
8683;SDS011;4379;59.744;18.206;2023-07-20T04:18:13;5.03;;;1.90;;
8683;SDS011;4379;59.744;18.206;2023-07-20T04:20:42;1.98;;;1.70;;
8683;SDS011;4379;59.744;18.206;2023-07-20T04:23:12;2.30;;;1.65;;
8683;SDS011;4379;59.744;18.206;2023-07-20T04:25:41;2.33;;;1.80;;
8683;SDS011;4379;59.744;18.206;2023-07-20T04:28:16;2.70;;;1.70;;
8683;SDS011;4379;59.744;18.206;2023-07-20T04:30:48;2.17;;;1.45;;
8683;SDS011;4379;59.744;18.206;2023-07-20T04:33:19;3.38;;;1.40;;
8683;SDS011;4379;59.744;18.206;2023-07-20T04:35:48;3.13;;;1.40;;
8683;SDS011;4379;59.744;18.206;2023-07-20T04:38:21;2.90;;;1.25;;
8683;SDS011;4379;59.744;18.206;2023-07-20T04:40:55;2.72;;;1.30;;
8683;SDS011;4379;59.744;18.206;2023-07-20T04:43:23;2.28;;;1.45;;
8683;SDS011;4379;59.744;18.206;2023-07-20T04:45:53;1.00;;;1.00;;
8683;SDS011;4379;59.744;18.206;2023-07-20T04:48:23;1.67;;;1.23;;
8683;SDS011;4379;59.744;18.206;2023-07-20T04:50:52;1.85;;;1.38;;
8683;SDS011;4379;59.744;18.206;2023-07-20T04:53:21;3.47;;;1.20;;
8683;SDS011;4379;59.744;18.206;2023-07-20T04:55:53;1.85;;;1.40;;
8683;SDS011;4379;59.744;18.206;2023-07-20T04:58:26;1.77;;;1.23;;
8683;SDS011;4379;59.744;18.206;2023-07-20T05:00:59;1.42;;;1.05;;
8683;SDS011;4379;59.744;18.206;2023-07-20T05:03:29;1.73;;;1.33;;
8683;SDS011;4379;59.744;18.206;2023-07-20T05:06:03;1.20;;;0.82;;
8683;SDS011;4379;59.744;18.206;2023-07-20T05:08:31;1.92;;;1.52;;
8683;SDS011;4379;59.744;18.206;2023-07-20T05:11:02;1.80;;;1.60;;
8683;SDS011;4379;59.744;18.206;2023-07-20T05:13:31;1.58;;;1.40;;
8683;SDS011;4379;59.744;18.206;2023-07-20T05:16:01;3.42;;;1.55;;
8683;SDS011;4379;59.744;18.206;2023-07-20T05:18:32;1.80;;;1.38;;
8683;SDS011;4379;59.744;18.206;2023-07-20T05:21:00;2.75;;;1.67;;
8683;SDS011;4379;59.744;18.206;2023-07-20T05:23:30;2.22;;;1.40;;
8683;SDS011;4379;59.744;18.206;2023-07-20T05:26:00;2.30;;;1.50;;
8683;SDS011;4379;59.744;18.206;2023-07-20T05:28:29;3.05;;;1.40;;
8683;SDS011;4379;59.744;18.206;2023-07-20T05:30:58;2.13;;;1.75;;
8683;SDS011;4379;59.744;18.206;2023-07-20T05:33:28;1.50;;;1.40;;
8683;SDS011;4379;59.744;18.206;2023-07-20T05:35:56;2.13;;;1.50;;
8683;SDS011;4379;59.744;18.206;2023-07-20T05:38:25;2.38;;;1.55;;
8683;SDS011;4379;59.744;18.206;2023-07-20T05:40:58;3.50;;;1.50;;
8683;SDS011;4379;59.744;18.206;2023-07-20T05:43:32;1.63;;;1.52;;
8683;SDS011;4379;59.744;18.206;2023-07-20T05:46:04;1.60;;;1.50;;
8683;SDS011;4379;59.744;18.206;2023-07-20T05:48:33;2.20;;;1.52;;
8683;SDS011;4379;59.744;18.206;2023-07-20T05:51:02;2.05;;;1.50;;
8683;SDS011;4379;59.744;18.206;2023-07-20T05:53:35;2.28;;;1.30;;
8683;SDS011;4379;59.744;18.206;2023-07-20T05:56:04;2.38;;;1.50;;
8683;SDS011;4379;59.744;18.206;2023-07-20T05:58:33;1.60;;;1.50;;
8683;SDS011;4379;59.744;18.206;2023-07-20T06:01:03;1.77;;;1.58;;
8683;SDS011;4379;59.744;18.206;2023-07-20T06:03:35;1.40;;;1.30;;
8683;SDS011;4379;59.744;18.206;2023-07-20T06:06:07;1.70;;;1.40;;
8683;SDS011;4379;59.744;18.206;2023-07-20T06:08:39;1.88;;;1.67;;
8683;SDS011;4379;59.744;18.206;2023-07-20T06:11:08;1.80;;;1.70;;
8683;SDS011;4379;59.744;18.206;2023-07-20T06:13:45;1.75;;;1.63;;
8683;SDS011;4379;59.744;18.206;2023-07-20T06:16:13;1.88;;;1.75;;
8683;SDS011;4379;59.744;18.206;2023-07-20T06:18:47;1.80;;;1.70;;
8683;SDS011;4379;59.744;18.206;2023-07-20T06:21:15;2.53;;;1.80;;
8683;SDS011;4379;59.744;18.206;2023-07-20T06:23:46;1.70;;;1.60;;
8683;SDS011;4379;59.744;18.206;2023-07-20T06:26:14;2.25;;;1.73;;
8683;SDS011;4379;59.744;18.206;2023-07-20T06:28:43;1.90;;;1.80;;
8683;SDS011;4379;59.744;18.206;2023-07-20T06:31:16;2.00;;;1.80;;
8683;SDS011;4379;59.744;18.206;2023-07-20T06:33:45;2.22;;;2.03;;
8683;SDS011;4379;59.744;18.206;2023-07-20T06:36:17;1.73;;;1.60;;
8683;SDS011;4379;59.744;18.206;2023-07-20T06:38:48;3.33;;;1.80;;
8683;SDS011;4379;59.744;18.206;2023-07-20T06:41:21;1.60;;;1.50;;
8683;SDS011;4379;59.744;18.206;2023-07-20T06:43:54;1.90;;;1.80;;
8683;SDS011;4379;59.744;18.206;2023-07-20T06:46:25;4.68;;;1.90;;
8683;SDS011;4379;59.744;18.206;2023-07-20T06:48:54;1.70;;;1.60;;
8683;SDS011;4379;59.744;18.206;2023-07-20T06:51:27;1.70;;;1.60;;
8683;SDS011;4379;59.744;18.206;2023-07-20T06:53:57;2.03;;;1.83;;
8683;SDS011;4379;59.744;18.206;2023-07-20T06:56:30;1.73;;;1.63;;
8683;SDS011;4379;59.744;18.206;2023-07-20T06:59:00;1.92;;;1.70;;
8683;SDS011;4379;59.744;18.206;2023-07-20T07:01:30;2.03;;;1.70;;
8683;SDS011;4379;59.744;18.206;2023-07-20T07:03:59;1.60;;;1.50;;
8683;SDS011;4379;59.744;18.206;2023-07-20T07:06:28;1.90;;;1.60;;
8683;SDS011;4379;59.744;18.206;2023-07-20T07:09:03;2.22;;;1.65;;
8683;SDS011;4379;59.744;18.206;2023-07-20T07:11:37;2.17;;;1.70;;
8683;SDS011;4379;59.744;18.206;2023-07-20T07:14:12;1.83;;;1.65;;
8683;SDS011;4379;59.744;18.206;2023-07-20T07:16:55;2.10;;;1.63;;
8683;SDS011;4379;59.744;18.206;2023-07-20T07:19:27;1.70;;;1.60;;
8683;SDS011;4379;59.744;18.206;2023-07-20T07:22:02;2.55;;;1.80;;
8683;SDS011;4379;59.744;18.206;2023-07-20T07:24:47;2.33;;;1.50;;
8683;SDS011;4379;59.744;18.206;2023-07-20T07:27:34;2.45;;;1.63;;
8683;SDS011;4379;59.744;18.206;2023-07-20T07:30:23;1.83;;;1.73;;
8683;SDS011;4379;59.744;18.206;2023-07-20T07:32:51;1.58;;;1.48;;
8683;SDS011;4379;59.744;18.206;2023-07-20T07:35:19;2.65;;;1.50;;
8683;SDS011;4379;59.744;18.206;2023-07-20T07:37:50;3.17;;;1.95;;
8683;SDS011;4379;59.744;18.206;2023-07-20T07:40:39;1.50;;;1.40;;
8683;SDS011;4379;59.744;18.206;2023-07-20T07:43:06;2.90;;;1.85;;
8683;SDS011;4379;59.744;18.206;2023-07-20T07:45:35;6.15;;;1.98;;
8683;SDS011;4379;59.744;18.206;2023-07-20T07:48:04;2.08;;;1.85;;
8683;SDS011;4379;59.744;18.206;2023-07-20T07:50:33;1.70;;;1.50;;
8683;SDS011;4379;59.744;18.206;2023-07-20T07:53:01;1.40;;;1.30;;
8683;SDS011;4379;59.744;18.206;2023-07-20T07:55:28;3.17;;;1.70;;
8683;SDS011;4379;59.744;18.206;2023-07-20T07:57:55;1.70;;;1.60;;
8683;SDS011;4379;59.744;18.206;2023-07-20T08:00:23;1.60;;;1.50;;
8683;SDS011;4379;59.744;18.206;2023-07-20T08:02:51;1.60;;;1.50;;
8683;SDS011;4379;59.744;18.206;2023-07-20T08:05:19;1.45;;;1.30;;
8683;SDS011;4379;59.744;18.206;2023-07-20T08:07:46;1.50;;;1.40;;
8683;SDS011;4379;59.744;18.206;2023-07-20T08:10:14;3.50;;;1.83;;
8683;SDS011;4379;59.744;18.206;2023-07-20T08:12:41;1.65;;;1.55;;
8683;SDS011;4379;59.744;18.206;2023-07-20T08:15:10;1.55;;;1.45;;
8683;SDS011;4379;59.744;18.206;2023-07-20T08:17:40;2.00;;;1.40;;
8683;SDS011;4379;59.744;18.206;2023-07-20T08:20:09;1.65;;;1.10;;
8683;SDS011;4379;59.744;18.206;2023-07-20T08:22:40;1.40;;;1.33;;
8683;SDS011;4379;59.744;18.206;2023-07-20T08:25:08;1.88;;;1.33;;
8683;SDS011;4379;59.744;18.206;2023-07-20T08:27:36;1.80;;;1.50;;
8683;SDS011;4379;59.744;18.206;2023-07-20T08:30:04;2.22;;;1.48;;
8683;SDS011;4379;59.744;18.206;2023-07-20T08:32:33;1.77;;;1.45;;
8683;SDS011;4379;59.744;18.206;2023-07-20T08:35:00;2.55;;;1.60;;
8683;SDS011;4379;59.744;18.206;2023-07-20T08:37:28;1.67;;;1.58;;
8683;SDS011;4379;59.744;18.206;2023-07-20T08:39:55;1.15;;;1.05;;
8683;SDS011;4379;59.744;18.206;2023-07-20T08:42:23;1.75;;;1.45;;
8683;SDS011;4379;59.744;18.206;2023-07-20T08:44:51;2.72;;;1.35;;
8683;SDS011;4379;59.744;18.206;2023-07-20T08:47:20;1.42;;;1.33;;
8683;SDS011;4379;59.744;18.206;2023-07-20T08:49:49;1.92;;;1.80;;
8683;SDS011;4379;59.744;18.206;2023-07-20T08:52:17;1.92;;;1.65;;
8683;SDS011;4379;59.744;18.206;2023-07-20T08:54:44;1.75;;;1.30;;
8683;SDS011;4379;59.744;18.206;2023-07-20T08:57:12;1.58;;;1.45;;
8683;SDS011;4379;59.744;18.206;2023-07-20T08:59:41;2.13;;;1.45;;
8683;SDS011;4379;59.744;18.206;2023-07-20T09:02:10;1.50;;;1.40;;
8683;SDS011;4379;59.744;18.206;2023-07-20T09:04:45;2.10;;;1.50;;
8683;SDS011;4379;59.744;18.206;2023-07-20T09:07:13;1.55;;;1.45;;
8683;SDS011;4379;59.744;18.206;2023-07-20T09:09:41;1.77;;;1.58;;
8683;SDS011;4379;59.744;18.206;2023-07-20T09:12:17;1.58;;;1.40;;
8683;SDS011;4379;59.744;18.206;2023-07-20T09:14:45;1.30;;;1.20;;
8683;SDS011;4379;59.744;18.206;2023-07-20T09:17:12;1.92;;;1.23;;
8683;SDS011;4379;59.744;18.206;2023-07-20T09:19:47;1.58;;;1.42;;
8683;SDS011;4379;59.744;18.206;2023-07-20T09:22:15;2.33;;;1.33;;
8683;SDS011;4379;59.744;18.206;2023-07-20T09:24:44;1.60;;;1.50;;
8683;SDS011;4379;59.744;18.206;2023-07-20T09:27:12;2.22;;;1.48;;
8683;SDS011;4379;59.744;18.206;2023-07-20T09:29:49;1.42;;;1.10;;
8683;SDS011;4379;59.744;18.206;2023-07-20T09:32:20;1.50;;;1.40;;
8683;SDS011;4379;59.744;18.206;2023-07-20T09:34:51;1.67;;;1.05;;
8683;SDS011;4379;59.744;18.206;2023-07-20T09:37:22;2.95;;;1.25;;
8683;SDS011;4379;59.744;18.206;2023-07-20T09:39:53;1.58;;;1.48;;
8683;SDS011;4379;59.744;18.206;2023-07-20T09:42:23;1.33;;;1.17;;
8683;SDS011;4379;59.744;18.206;2023-07-20T09:44:56;1.30;;;1.20;;
8683;SDS011;4379;59.744;18.206;2023-07-20T09:47:24;1.50;;;1.40;;
8683;SDS011;4379;59.744;18.206;2023-07-20T09:49:58;4.88;;;1.60;;
8683;SDS011;4379;59.744;18.206;2023-07-20T09:52:31;1.60;;;1.50;;
8683;SDS011;4379;59.744;18.206;2023-07-20T09:55:04;4.40;;;1.60;;
8683;SDS011;4379;59.744;18.206;2023-07-20T09:57:35;1.60;;;1.50;;
8683;SDS011;4379;59.744;18.206;2023-07-20T10:00:04;1.55;;;1.30;;
8683;SDS011;4379;59.744;18.206;2023-07-20T10:02:43;2.88;;;1.63;;
8683;SDS011;4379;59.744;18.206;2023-07-20T10:05:13;2.33;;;1.70;;
8683;SDS011;4379;59.744;18.206;2023-07-20T10:07:48;1.45;;;1.35;;
8683;SDS011;4379;59.744;18.206;2023-07-20T10:10:37;1.63;;;1.52;;
8683;SDS011;4379;59.744;18.206;2023-07-20T10:13:08;3.05;;;1.42;;
8683;SDS011;4379;59.744;18.206;2023-07-20T10:15:40;2.22;;;1.50;;
8683;SDS011;4379;59.744;18.206;2023-07-20T10:18:25;1.48;;;1.38;;
8683;SDS011;4379;59.744;18.206;2023-07-20T10:20:56;1.50;;;1.40;;
8683;SDS011;4379;59.744;18.206;2023-07-20T10:23:30;1.30;;;1.20;;
8683;SDS011;4379;59.744;18.206;2023-07-20T10:26:01;1.42;;;1.33;;
8683;SDS011;4379;59.744;18.206;2023-07-20T10:28:31;3.35;;;1.30;;
8683;SDS011;4379;59.744;18.206;2023-07-20T10:30:59;1.40;;;1.30;;
8683;SDS011;4379;59.744;18.206;2023-07-20T10:33:27;1.55;;;1.45;;
8683;SDS011;4379;59.744;18.206;2023-07-20T10:35:56;3.30;;;1.23;;
8683;SDS011;4379;59.744;18.206;2023-07-20T10:41:35;2.55;;;1.45;;
8683;SDS011;4379;59.744;18.206;2023-07-20T10:44:07;1.23;;;1.13;;
8683;SDS011;4379;59.744;18.206;2023-07-20T10:49:07;1.30;;;1.20;;
8683;SDS011;4379;59.744;18.206;2023-07-20T10:51:40;1.52;;;1.42;;
8683;SDS011;4379;59.744;18.206;2023-07-20T10:54:53;1.80;;;1.50;;
8683;SDS011;4379;59.744;18.206;2023-07-20T10:56:59;1.38;;;1.27;;
8683;SDS011;4379;59.744;18.206;2023-07-20T11:00:06;1.30;;;1.15;;
8683;SDS011;4379;59.744;18.206;2023-07-20T11:02:48;1.45;;;1.35;;
8683;SDS011;4379;59.744;18.206;2023-07-20T11:08:11;1.33;;;1.20;;
8683;SDS011;4379;59.744;18.206;2023-07-20T11:10:39;1.30;;;1.20;;
8683;SDS011;4379;59.744;18.206;2023-07-20T11:13:16;1.35;;;1.25;;
8683;SDS011;4379;59.744;18.206;2023-07-20T11:18:26;3.75;;;1.08;;
8683;SDS011;4379;59.744;18.206;2023-07-20T11:20:55;4.32;;;1.48;;
8683;SDS011;4379;59.744;18.206;2023-07-20T11:23:25;4.40;;;1.50;;
8683;SDS011;4379;59.744;18.206;2023-07-20T11:25:54;1.40;;;1.30;;
8683;SDS011;4379;59.744;18.206;2023-07-20T11:28:23;6.63;;;2.35;;
8683;SDS011;4379;59.744;18.206;2023-07-20T11:30:52;11.70;;;3.13;;
8683;SDS011;4379;59.744;18.206;2023-07-20T11:33:23;9.10;;;2.65;;
8683;SDS011;4379;59.744;18.206;2023-07-20T11:35:50;5.25;;;2.13;;
8683;SDS011;4379;59.744;18.206;2023-07-20T11:38:19;1.83;;;1.67;;
8683;SDS011;4379;59.744;18.206;2023-07-20T11:40:47;1.63;;;1.45;;
8683;SDS011;4379;59.744;18.206;2023-07-20T11:43:15;6.03;;;1.77;;
8683;SDS011;4379;59.744;18.206;2023-07-20T11:45:46;3.08;;;1.60;;
8683;SDS011;4379;59.744;18.206;2023-07-20T11:48:14;1.40;;;1.30;;
8683;SDS011;4379;59.744;18.206;2023-07-20T11:50:43;1.65;;;1.13;;
8683;SDS011;4379;59.744;18.206;2023-07-20T11:53:11;1.65;;;1.30;;
8683;SDS011;4379;59.744;18.206;2023-07-20T11:55:41;1.42;;;1.10;;
8683;SDS011;4379;59.744;18.206;2023-07-20T11:58:12;2.50;;;1.30;;
8683;SDS011;4379;59.744;18.206;2023-07-20T12:00:44;3.50;;;1.33;;
8683;SDS011;4379;59.744;18.206;2023-07-20T12:03:12;1.20;;;0.90;;
8683;SDS011;4379;59.744;18.206;2023-07-20T12:05:41;1.20;;;1.10;;
8683;SDS011;4379;59.744;18.206;2023-07-20T12:08:26;0.80;;;0.80;;
8683;SDS011;4379;59.744;18.206;2023-07-20T12:10:54;2.80;;;1.20;;
8683;SDS011;4379;59.744;18.206;2023-07-20T12:13:22;1.17;;;1.08;;
8683;SDS011;4379;59.744;18.206;2023-07-20T12:15:52;1.52;;;1.10;;
8683;SDS011;4379;59.744;18.206;2023-07-20T12:18:22;1.38;;;1.08;;
8683;SDS011;4379;59.744;18.206;2023-07-20T12:20:58;1.00;;;1.00;;
8683;SDS011;4379;59.744;18.206;2023-07-20T12:23:26;1.50;;;1.20;;
8683;SDS011;4379;59.744;18.206;2023-07-20T12:26:01;1.35;;;1.23;;
8683;SDS011;4379;59.744;18.206;2023-07-20T12:28:29;1.42;;;1.30;;
8683;SDS011;4379;59.744;18.206;2023-07-20T12:30:57;1.30;;;1.20;;
8683;SDS011;4379;59.744;18.206;2023-07-20T12:33:28;0.90;;;0.90;;
8683;SDS011;4379;59.744;18.206;2023-07-20T12:35:56;0.98;;;0.98;;
8683;SDS011;4379;59.744;18.206;2023-07-20T12:38:25;1.00;;;0.80;;
8683;SDS011;4379;59.744;18.206;2023-07-20T12:41:03;0.93;;;0.90;;
8683;SDS011;4379;59.744;18.206;2023-07-20T12:43:31;1.50;;;1.00;;
8683;SDS011;4379;59.744;18.206;2023-07-20T12:45:59;0.77;;;0.77;;
8683;SDS011;4379;59.744;18.206;2023-07-20T12:48:29;1.08;;;0.95;;
8683;SDS011;4379;59.744;18.206;2023-07-20T12:50:57;0.80;;;0.75;;
8683;SDS011;4379;59.744;18.206;2023-07-20T12:53:25;1.17;;;1.00;;
8683;SDS011;4379;59.744;18.206;2023-07-20T12:55:52;1.10;;;0.90;;
8683;SDS011;4379;59.744;18.206;2023-07-20T12:58:20;1.25;;;0.60;;
8683;SDS011;4379;59.744;18.206;2023-07-20T13:00:47;0.77;;;0.77;;
8683;SDS011;4379;59.744;18.206;2023-07-20T13:03:15;1.02;;;1.00;;
8683;SDS011;4379;59.744;18.206;2023-07-20T13:05:46;0.68;;;0.68;;
8683;SDS011;4379;59.744;18.206;2023-07-20T13:08:17;1.15;;;0.90;;
8683;SDS011;4379;59.744;18.206;2023-07-20T13:10:46;0.90;;;0.90;;
8683;SDS011;4379;59.744;18.206;2023-07-20T13:13:13;0.57;;;0.57;;
8683;SDS011;4379;59.744;18.206;2023-07-20T13:15:42;1.55;;;0.85;;
8683;SDS011;4379;59.744;18.206;2023-07-20T13:18:10;0.90;;;0.80;;
8683;SDS011;4379;59.744;18.206;2023-07-20T13:20:37;1.02;;;0.88;;
8683;SDS011;4379;59.744;18.206;2023-07-20T13:23:05;0.60;;;0.60;;
8683;SDS011;4379;59.744;18.206;2023-07-20T13:25:33;0.70;;;0.70;;
8683;SDS011;4379;59.744;18.206;2023-07-20T13:28:01;0.80;;;0.80;;
8683;SDS011;4379;59.744;18.206;2023-07-20T13:30:28;0.70;;;0.70;;
8683;SDS011;4379;59.744;18.206;2023-07-20T13:32:57;0.60;;;0.60;;
8683;SDS011;4379;59.744;18.206;2023-07-20T13:35:28;0.70;;;0.68;;
8683;SDS011;4379;59.744;18.206;2023-07-20T13:38:14;0.80;;;0.80;;
8683;SDS011;4379;59.744;18.206;2023-07-20T13:40:43;0.60;;;0.60;;
8683;SDS011;4379;59.744;18.206;2023-07-20T13:43:11;1.10;;;0.60;;
8683;SDS011;4379;59.744;18.206;2023-07-20T13:45:41;0.68;;;0.68;;
8683;SDS011;4379;59.744;18.206;2023-07-20T13:48:08;0.80;;;0.80;;
8683;SDS011;4379;59.744;18.206;2023-07-20T13:50:36;0.90;;;0.90;;
8683;SDS011;4379;59.744;18.206;2023-07-20T13:53:08;0.82;;;0.82;;
8683;SDS011;4379;59.744;18.206;2023-07-20T13:55:38;0.88;;;0.85;;
8683;SDS011;4379;59.744;18.206;2023-07-20T13:58:10;0.95;;;0.95;;
8683;SDS011;4379;59.744;18.206;2023-07-20T14:00:39;1.70;;;1.00;;
8683;SDS011;4379;59.744;18.206;2023-07-20T14:03:08;0.80;;;0.80;;
8683;SDS011;4379;59.744;18.206;2023-07-20T14:05:39;1.10;;;0.70;;
8683;SDS011;4379;59.744;18.206;2023-07-20T14:08:10;0.70;;;0.70;;
8683;SDS011;4379;59.744;18.206;2023-07-20T14:10:37;0.70;;;0.70;;
8683;SDS011;4379;59.744;18.206;2023-07-20T14:13:09;0.80;;;0.80;;
8683;SDS011;4379;59.744;18.206;2023-07-20T14:15:37;0.70;;;0.70;;
8683;SDS011;4379;59.744;18.206;2023-07-20T14:18:06;0.90;;;0.90;;
8683;SDS011;4379;59.744;18.206;2023-07-20T14:20:37;1.77;;;0.88;;
8683;SDS011;4379;59.744;18.206;2023-07-20T14:23:05;1.38;;;0.70;;
8683;SDS011;4379;59.744;18.206;2023-07-20T14:25:34;0.85;;;0.80;;
8683;SDS011;4379;59.744;18.206;2023-07-20T14:28:03;1.42;;;1.00;;
8683;SDS011;4379;59.744;18.206;2023-07-20T14:30:32;0.88;;;0.88;;
8683;SDS011;4379;59.744;18.206;2023-07-20T14:32:59;1.20;;;0.90;;
8683;SDS011;4379;59.744;18.206;2023-07-20T14:35:28;0.90;;;0.90;;
8683;SDS011;4379;59.744;18.206;2023-07-20T14:37:55;1.00;;;1.00;;
8683;SDS011;4379;59.744;18.206;2023-07-20T14:40:23;0.93;;;0.93;;
8683;SDS011;4379;59.744;18.206;2023-07-20T14:42:51;2.55;;;1.13;;
8683;SDS011;4379;59.744;18.206;2023-07-20T14:45:21;2.22;;;1.67;;
8683;SDS011;4379;59.744;18.206;2023-07-20T14:47:49;2.10;;;1.25;;
8683;SDS011;4379;59.744;18.206;2023-07-20T14:50:21;1.55;;;1.25;;
8683;SDS011;4379;59.744;18.206;2023-07-20T14:52:49;1.92;;;1.33;;
8683;SDS011;4379;59.744;18.206;2023-07-20T14:55:16;1.30;;;1.20;;
8683;SDS011;4379;59.744;18.206;2023-07-20T14:57:44;2.75;;;1.40;;
